sensor_id;sensor_type;location;lat;lon;timestamp;pressure;altitude;pressure_sealevel;temperature;humidity
6514;BME280;3290;47.716;9.070;2023-03-12T00:00:40;96584.00;;;5.85;99.52
6514;BME280;3290;47.716;9.070;2023-03-12T00:03:06;96578.84;;;5.97;99.70
6514;BME280;3290;47.716;9.070;2023-03-12T00:05:32;96582.31;;;6.17;98.29
6514;BME280;3290;47.716;9.070;2023-03-12T00:07:57;96582.72;;;6.21;97.77
6514;BME280;3290;47.716;9.070;2023-03-12T00:10:27;96585.31;;;6.21;98.36
6514;BME280;3290;47.716;9.070;2023-03-12T00:12:53;96583.34;;;6.29;98.33
6514;BME280;3290;47.716;9.070;2023-03-12T00:15:18;96584.91;;;6.17;99.87
6514;BME280;3290;47.716;9.070;2023-03-12T00:17:44;96588.56;;;6.42;98.67
6514;BME280;3290;47.716;9.070;2023-03-12T00:20:10;96584.19;;;6.42;98.08
6514;BME280;3290;47.716;9.070;2023-03-12T00:22:36;96594.81;;;6.54;99.29
6514;BME280;3290;47.716;9.070;2023-03-12T00:25:03;96585.84;;;6.56;98.67
6514;BME280;3290;47.716;9.070;2023-03-12T00:27:28;96588.44;;;6.56;98.53
6514;BME280;3290;47.716;9.070;2023-03-12T00:29:54;96590.84;;;6.77;97.35
6514;BME280;3290;47.716;9.070;2023-03-12T00:32:19;96592.22;;;6.54;98.71
6514;BME280;3290;47.716;9.070;2023-03-12T00:34:52;96593.63;;;6.63;99.99
6514;BME280;3290;47.716;9.070;2023-03-12T00:37:18;96594.22;;;6.65;99.48
6514;BME280;3290;47.716;9.070;2023-03-12T00:39:43;96597.06;;;6.63;99.60
6514;BME280;3290;47.716;9.070;2023-03-12T00:42:08;96599.03;;;6.68;99.11
6514;BME280;3290;47.716;9.070;2023-03-12T00:44:34;96594.25;;;6.71;98.75
6514;BME280;3290;47.716;9.070;2023-03-12T00:46:59;96600.47;;;6.77;98.35
6514;BME280;3290;47.716;9.070;2023-03-12T00:49:25;96588.22;;;6.77;97.81
6514;BME280;3290;47.716;9.070;2023-03-12T00:51:50;96600.25;;;6.72;97.94
6514;BME280;3290;47.716;9.070;2023-03-12T00:54:15;96596.22;;;6.63;98.81
6514;BME280;3290;47.716;9.070;2023-03-12T00:56:41;96600.56;;;6.37;99.21
6514;BME280;3290;47.716;9.070;2023-03-12T00:59:06;96599.84;;;6.75;98.98
6514;BME280;3290;47.716;9.070;2023-03-12T01:01:32;96598.25;;;6.74;98.55
6514;BME280;3290;47.716;9.070;2023-03-12T01:03:57;96602.03;;;6.65;98.09
6514;BME280;3290;47.716;9.070;2023-03-12T01:06:23;96601.84;;;6.66;98.57
6514;BME280;3290;47.716;9.070;2023-03-12T01:08:49;96602.06;;;6.78;98.32
6514;BME280;3290;47.716;9.070;2023-03-12T01:11:17;96601.47;;;6.82;98.12
6514;BME280;3290;47.716;9.070;2023-03-12T01:13:43;96600.28;;;6.84;97.24
6514;BME280;3290;47.716;9.070;2023-03-12T01:16:08;96596.69;;;6.98;96.65
6514;BME280;3290;47.716;9.070;2023-03-12T01:18:34;96596.88;;;7.03;96.67
6514;BME280;3290;47.716;9.070;2023-03-12T01:21:00;96599.88;;;6.87;98.09
6514;BME280;3290;47.716;9.070;2023-03-12T01:23:26;96595.81;;;6.59;99.26
6514;BME280;3290;47.716;9.070;2023-03-12T01:25:51;96595.03;;;6.59;98.00
6514;BME280;3290;47.716;9.070;2023-03-12T01:28:20;96591.44;;;6.66;98.05
6514;BME280;3290;47.716;9.070;2023-03-12T01:30:46;96602.47;;;6.75;97.96
6514;BME280;3290;47.716;9.070;2023-03-12T01:33:11;96598.66;;;6.71;97.81
6514;BME280;3290;47.716;9.070;2023-03-12T01:35:38;96596.44;;;6.61;98.61
6514;BME280;3290;47.716;9.070;2023-03-12T01:38:07;96603.44;;;6.61;99.03
6514;BME280;3290;47.716;9.070;2023-03-12T01:40:36;96606.03;;;6.61;98.71
6514;BME280;3290;47.716;9.070;2023-03-12T01:43:35;96602.25;;;6.57;98.21
6514;BME280;3290;47.716;9.070;2023-03-12T01:48:31;96611.91;;;6.88;97.59
6514;BME280;3290;47.716;9.070;2023-03-12T01:50:58;96603.69;;;6.91;97.57
6514;BME280;3290;47.716;9.070;2023-03-12T01:53:24;96598.66;;;6.83;97.60
6514;BME280;3290;47.716;9.070;2023-03-12T01:55:50;96604.25;;;6.80;97.52
6514;BME280;3290;47.716;9.070;2023-03-12T01:58:16;96593.06;;;6.86;98.15
6514;BME280;3290;47.716;9.070;2023-03-12T02:00:42;96597.00;;;6.50;99.98
6514;BME280;3290;47.716;9.070;2023-03-12T02:03:08;96595.03;;;6.72;98.82
6514;BME280;3290;47.716;9.070;2023-03-12T02:08:11;96597.84;;;6.89;99.15
6514;BME280;3290;47.716;9.070;2023-03-12T02:10:37;96599.47;;;6.78;98.74
6514;BME280;3290;47.716;9.070;2023-03-12T02:13:03;96596.44;;;6.80;99.45
6514;BME280;3290;47.716;9.070;2023-03-12T02:15:28;96597.47;;;6.67;99.95
6514;BME280;3290;47.716;9.070;2023-03-12T02:17:54;96599.69;;;6.82;99.27
6514;BME280;3290;47.716;9.070;2023-03-12T02:20:32;96595.19;;;6.51;100.00
6514;BME280;3290;47.716;9.070;2023-03-12T02:23:04;96594.22;;;6.52;100.00
6514;BME280;3290;47.716;9.070;2023-03-12T02:25:37;96602.25;;;6.70;100.00
6514;BME280;3290;47.716;9.070;2023-03-12T02:28:07;96595.03;;;6.59;100.00
6514;BME280;3290;47.716;9.070;2023-03-12T02:30:33;96600.81;;;6.48;100.00
6514;BME280;3290;47.716;9.070;2023-03-12T02:33:04;96605.84;;;6.49;100.00
6514;BME280;3290;47.716;9.070;2023-03-12T02:35:29;96603.00;;;6.51;100.00
6514;BME280;3290;47.716;9.070;2023-03-12T02:37:55;96606.63;;;6.63;100.00
6514;BME280;3290;47.716;9.070;2023-03-12T02:40:32;96607.47;;;6.63;100.00
6514;BME280;3290;47.716;9.070;2023-03-12T02:42:58;96613.09;;;6.79;100.00
6514;BME280;3290;47.716;9.070;2023-03-12T02:45:25;96601.28;;;6.90;100.00
6514;BME280;3290;47.716;9.070;2023-03-12T02:47:51;96614.47;;;6.82;100.00
6514;BME280;3290;47.716;9.070;2023-03-12T02:50:16;96617.91;;;6.95;98.89
6514;BME280;3290;47.716;9.070;2023-03-12T02:52:42;96616.47;;;6.67;100.00
6514;BME280;3290;47.716;9.070;2023-03-12T02:55:08;96624.69;;;6.71;100.00
6514;BME280;3290;47.716;9.070;2023-03-12T02:57:33;96622.50;;;6.74;100.00
6514;BME280;3290;47.716;9.070;2023-03-12T03:00:06;96617.50;;;6.85;99.86
6514;BME280;3290;47.716;9.070;2023-03-12T03:02:42;96619.50;;;6.83;100.00
6514;BME280;3290;47.716;9.070;2023-03-12T03:05:08;96615.09;;;6.78;100.00
6514;BME280;3290;47.716;9.070;2023-03-12T03:07:34;96622.50;;;6.87;99.62
6514;BME280;3290;47.716;9.070;2023-03-12T03:10:00;96626.72;;;6.88;99.84
6514;BME280;3290;47.716;9.070;2023-03-12T03:12:32;96627.09;;;6.78;99.86
6514;BME280;3290;47.716;9.070;2023-03-12T03:14:58;96629.91;;;6.83;99.53
6514;BME280;3290;47.716;9.070;2023-03-12T03:17:24;96628.31;;;6.89;99.60
6514;BME280;3290;47.716;9.070;2023-03-12T03:19:50;96628.72;;;6.92;99.54
6514;BME280;3290;47.716;9.070;2023-03-12T03:22:16;96630.72;;;6.90;98.34
6514;BME280;3290;47.716;9.070;2023-03-12T03:24:42;96626.09;;;6.92;98.58
6514;BME280;3290;47.716;9.070;2023-03-12T03:27:07;96627.50;;;6.88;98.50
6514;BME280;3290;47.716;9.070;2023-03-12T03:29:33;96627.91;;;6.79;99.35
6514;BME280;3290;47.716;9.070;2023-03-12T03:31:58;96628.31;;;6.82;99.62
6514;BME280;3290;47.716;9.070;2023-03-12T03:34:24;96617.53;;;6.98;99.19
6514;BME280;3290;47.716;9.070;2023-03-12T03:36:49;96623.50;;;6.92;98.93
6514;BME280;3290;47.716;9.070;2023-03-12T03:39:15;96618.09;;;6.81;99.75
6514;BME280;3290;47.716;9.070;2023-03-12T03:41:40;96612.66;;;6.70;99.06
6514;BME280;3290;47.716;9.070;2023-03-12T03:44:05;96610.66;;;6.72;98.37
6514;BME280;3290;47.716;9.070;2023-03-12T03:46:32;96602.66;;;6.73;99.23
6514;BME280;3290;47.716;9.070;2023-03-12T03:49:00;96607.28;;;6.78;99.12
6514;BME280;3290;47.716;9.070;2023-03-12T03:51:25;96596.66;;;6.73;98.70
6514;BME280;3290;47.716;9.070;2023-03-12T03:53:50;96597.03;;;6.70;99.08
6514;BME280;3290;47.716;9.070;2023-03-12T03:56:16;96598.88;;;6.88;98.03
6514;BME280;3290;47.716;9.070;2023-03-12T03:58:42;96581.78;;;6.41;100.00
6514;BME280;3290;47.716;9.070;2023-03-12T04:01:07;96575.84;;;6.60;100.00
6514;BME280;3290;47.716;9.070;2023-03-12T04:03:33;96575.41;;;6.63;100.00
6514;BME280;3290;47.716;9.070;2023-03-12T04:06:01;96571.00;;;6.50;100.00
6514;BME280;3290;47.716;9.070;2023-03-12T04:08:27;96571.44;;;6.67;100.00
6514;BME280;3290;47.716;9.070;2023-03-12T04:10:53;96570.22;;;6.63;100.00
6514;BME280;3290;47.716;9.070;2023-03-12T04:13:20;96562.03;;;6.91;100.00
6514;BME280;3290;47.716;9.070;2023-03-12T04:15:50;96568.63;;;7.00;99.94
6514;BME280;3290;47.716;9.070;2023-03-12T04:18:16;96556.22;;;6.96;100.00
6514;BME280;3290;47.716;9.070;2023-03-12T04:20:42;96566.41;;;6.72;100.00
6514;BME280;3290;47.716;9.070;2023-03-12T04:23:08;96563.41;;;6.87;100.00
6514;BME280;3290;47.716;9.070;2023-03-12T04:25:33;96564.63;;;6.91;100.00
6514;BME280;3290;47.716;9.070;2023-03-12T04:27:58;96587.84;;;6.99;100.00
6514;BME280;3290;47.716;9.070;2023-03-12T04:30:25;96597.09;;;7.15;98.61
6514;BME280;3290;47.716;9.070;2023-03-12T04:32:50;96593.44;;;7.35;98.07
6514;BME280;3290;47.716;9.070;2023-03-12T04:35:17;96584.25;;;6.87;99.21
6514;BME280;3290;47.716;9.070;2023-03-12T04:37:42;96589.25;;;7.34;98.38
6514;BME280;3290;47.716;9.070;2023-03-12T04:40:09;96598.66;;;7.48;96.77
6514;BME280;3290;47.716;9.070;2023-03-12T04:42:35;96592.22;;;7.57;96.95
6514;BME280;3290;47.716;9.070;2023-03-12T04:45:01;96594.63;;;7.45;96.81
6514;BME280;3290;47.716;9.070;2023-03-12T04:47:26;96597.06;;;7.34;97.76
6514;BME280;3290;47.716;9.070;2023-03-12T04:49:52;96594.66;;;7.39;97.70
6514;BME280;3290;47.716;9.070;2023-03-12T04:52:17;96588.63;;;7.38;97.86
6514;BME280;3290;47.716;9.070;2023-03-12T04:54:43;96590.25;;;7.20;98.69
6514;BME280;3290;47.716;9.070;2023-03-12T04:57:09;96584.59;;;7.49;97.14
6514;BME280;3290;47.716;9.070;2023-03-12T04:59:34;96594.22;;;7.42;98.16
6514;BME280;3290;47.716;9.070;2023-03-12T05:02:00;96592.69;;;7.28;97.75
6514;BME280;3290;47.716;9.070;2023-03-12T05:04:25;96596.63;;;7.50;96.81
6514;BME280;3290;47.716;9.070;2023-03-12T05:06:50;96581.41;;;7.47;97.31
6514;BME280;3290;47.716;9.070;2023-03-12T05:09:16;96583.84;;;7.35;98.51
6514;BME280;3290;47.716;9.070;2023-03-12T05:11:41;96576.63;;;7.44;97.94
6514;BME280;3290;47.716;9.070;2023-03-12T05:14:08;96576.97;;;7.60;95.64
6514;BME280;3290;47.716;9.070;2023-03-12T05:16:34;96576.13;;;7.72;96.05
6514;BME280;3290;47.716;9.070;2023-03-12T05:19:00;96569.75;;;7.62;95.85
6514;BME280;3290;47.716;9.070;2023-03-12T05:21:26;96574.56;;;7.65;95.38
6514;BME280;3290;47.716;9.070;2023-03-12T05:23:52;96581.00;;;7.50;97.35
6514;BME280;3290;47.716;9.070;2023-03-12T05:26:18;96578.19;;;7.51;97.53
6514;BME280;3290;47.716;9.070;2023-03-12T05:28:44;96574.16;;;7.61;96.60
6514;BME280;3290;47.716;9.070;2023-03-12T05:31:10;96572.59;;;7.48;97.10
6514;BME280;3290;47.716;9.070;2023-03-12T05:33:36;96571.56;;;7.49;97.94
6514;BME280;3290;47.716;9.070;2023-03-12T05:36:01;96574.56;;;7.58;97.17
6514;BME280;3290;47.716;9.070;2023-03-12T05:38:27;96591.44;;;7.56;97.56
6514;BME280;3290;47.716;9.070;2023-03-12T05:40:56;96594.00;;;7.62;97.14
6514;BME280;3290;47.716;9.070;2023-03-12T05:43:24;96596.81;;;7.67;96.87
6514;BME280;3290;47.716;9.070;2023-03-12T05:45:49;96593.59;;;7.59;96.72
6514;BME280;3290;47.716;9.070;2023-03-12T05:48:15;96587.59;;;7.58;95.74
6514;BME280;3290;47.716;9.070;2023-03-12T05:50:41;96604.63;;;7.74;95.32
6514;BME280;3290;47.716;9.070;2023-03-12T05:53:06;96603.41;;;7.70;95.80
6514;BME280;3290;47.716;9.070;2023-03-12T05:55:35;96595.44;;;7.52;97.72
6514;BME280;3290;47.716;9.070;2023-03-12T05:58:03;96587.41;;;7.54;99.16
6514;BME280;3290;47.716;9.070;2023-03-12T06:00:28;96567.78;;;7.45;99.21
6514;BME280;3290;47.716;9.070;2023-03-12T06:02:54;96567.78;;;7.45;99.50
6514;BME280;3290;47.716;9.070;2023-03-12T06:05:19;96577.38;;;7.51;100.00
6514;BME280;3290;47.716;9.070;2023-03-12T06:07:45;96592.25;;;7.44;100.00
6514;BME280;3290;47.716;9.070;2023-03-12T06:10:10;96610.50;;;7.44;100.00
6514;BME280;3290;47.716;9.070;2023-03-12T06:12:36;96606.28;;;7.23;100.00
6514;BME280;3290;47.716;9.070;2023-03-12T06:15:01;96586.25;;;7.37;100.00
6514;BME280;3290;47.716;9.070;2023-03-12T06:17:28;96590.44;;;7.38;100.00
6514;BME280;3290;47.716;9.070;2023-03-12T06:19:54;96585.03;;;7.46;100.00
6514;BME280;3290;47.716;9.070;2023-03-12T06:22:19;96592.69;;;7.28;100.00
6514;BME280;3290;47.716;9.070;2023-03-12T06:24:46;96600.06;;;7.31;100.00
6514;BME280;3290;47.716;9.070;2023-03-12T06:27:12;96601.09;;;7.23;100.00
6514;BME280;3290;47.716;9.070;2023-03-12T06:29:38;96607.88;;;7.37;100.00
6514;BME280;3290;47.716;9.070;2023-03-12T06:32:03;96591.44;;;7.43;100.00
6514;BME280;3290;47.716;9.070;2023-03-12T06:34:29;96591.19;;;7.57;100.00
6514;BME280;3290;47.716;9.070;2023-03-12T06:36:54;96580.53;;;7.78;100.00
6514;BME280;3290;47.716;9.070;2023-03-12T06:39:20;96589.38;;;7.77;100.00
6514;BME280;3290;47.716;9.070;2023-03-12T06:41:45;96598.97;;;7.83;100.00
6514;BME280;3290;47.716;9.070;2023-03-12T06:44:10;96603.78;;;7.80;100.00
6514;BME280;3290;47.716;9.070;2023-03-12T06:46:36;96607.81;;;7.82;100.00
6514;BME280;3290;47.716;9.070;2023-03-12T06:49:02;96614.84;;;7.62;100.00
6514;BME280;3290;47.716;9.070;2023-03-12T06:51:27;96599.81;;;7.64;100.00
6514;BME280;3290;47.716;9.070;2023-03-12T06:53:52;96598.41;;;7.56;100.00
6514;BME280;3290;47.716;9.070;2023-03-12T06:56:18;96608.03;;;7.74;100.00
6514;BME280;3290;47.716;9.070;2023-03-12T06:58:43;96603.00;;;7.79;100.00
6514;BME280;3290;47.716;9.070;2023-03-12T07:01:10;96593.09;;;8.07;100.00
6514;BME280;3290;47.716;9.070;2023-03-12T07:03:36;96599.25;;;8.25;100.00
6514;BME280;3290;47.716;9.070;2023-03-12T07:06:02;96603.66;;;8.25;100.00
6514;BME280;3290;47.716;9.070;2023-03-12T07:08:27;96623.78;;;8.11;100.00
6514;BME280;3290;47.716;9.070;2023-03-12T07:10:55;96621.97;;;8.05;100.00
6514;BME280;3290;47.716;9.070;2023-03-12T07:13:21;96618.63;;;7.79;100.00
6514;BME280;3290;47.716;9.070;2023-03-12T07:15:46;96616.63;;;7.81;100.00
6514;BME280;3290;47.716;9.070;2023-03-12T07:18:12;96626.13;;;8.26;100.00
6514;BME280;3290;47.716;9.070;2023-03-12T07:20:41;96630.16;;;8.22;100.00
6514;BME280;3290;47.716;9.070;2023-03-12T07:23:08;96626.91;;;8.33;100.00
6514;BME280;3290;47.716;9.070;2023-03-12T07:25:35;96623.66;;;8.43;100.00
6514;BME280;3290;47.716;9.070;2023-03-12T07:28:01;96636.53;;;8.38;100.00
6514;BME280;3290;47.716;9.070;2023-03-12T07:30:27;96648.22;;;8.30;100.00
6514;BME280;3290;47.716;9.070;2023-03-12T07:32:57;96652.47;;;8.24;100.00
6514;BME280;3290;47.716;9.070;2023-03-12T07:35:22;96650.22;;;8.28;100.00
6514;BME280;3290;47.716;9.070;2023-03-12T07:37:48;96647.25;;;8.18;100.00
6514;BME280;3290;47.716;9.070;2023-03-12T07:40:13;96645.38;;;8.31;100.00
6514;BME280;3290;47.716;9.070;2023-03-12T07:42:39;96647.69;;;8.52;100.00
6514;BME280;3290;47.716;9.070;2023-03-12T07:45:04;96652.53;;;8.48;100.00
6514;BME280;3290;47.716;9.070;2023-03-12T07:47:32;96649.50;;;8.51;100.00
6514;BME280;3290;47.716;9.070;2023-03-12T07:49:57;96654.06;;;8.62;100.00
6514;BME280;3290;47.716;9.070;2023-03-12T07:52:22;96652.78;;;8.40;100.00
6514;BME280;3290;47.716;9.070;2023-03-12T07:54:48;96649.03;;;8.24;100.00
6514;BME280;3290;47.716;9.070;2023-03-12T07:57:13;96647.31;;;8.48;100.00
6514;BME280;3290;47.716;9.070;2023-03-12T07:59:39;96651.41;;;8.75;100.00
6514;BME280;3290;47.716;9.070;2023-03-12T08:02:04;96650.38;;;8.76;100.00
6514;BME280;3290;47.716;9.070;2023-03-12T08:04:30;96655.19;;;8.79;100.00
6514;BME280;3290;47.716;9.070;2023-03-12T08:06:56;96665.25;;;8.76;100.00
6514;BME280;3290;47.716;9.070;2023-03-12T08:09:21;96671.34;;;8.63;100.00
6514;BME280;3290;47.716;9.070;2023-03-12T08:11:46;96659.34;;;8.93;100.00
6514;BME280;3290;47.716;9.070;2023-03-12T08:14:12;96665.69;;;9.58;100.00
6514;BME280;3290;47.716;9.070;2023-03-12T08:16:37;96662.50;;;10.51;97.14
6514;BME280;3290;47.716;9.070;2023-03-12T08:19:02;96667.16;;;11.25;98.20
6514;BME280;3290;47.716;9.070;2023-03-12T08:21:28;96669.06;;;10.42;95.40
6514;BME280;3290;47.716;9.070;2023-03-12T08:23:53;96683.72;;;9.42;100.00
6514;BME280;3290;47.716;9.070;2023-03-12T08:26:18;96682.78;;;9.36;100.00
6514;BME280;3290;47.716;9.070;2023-03-12T08:28:44;96679.97;;;9.31;100.00
6514;BME280;3290;47.716;9.070;2023-03-12T08:31:09;96682.00;;;9.29;100.00
6514;BME280;3290;47.716;9.070;2023-03-12T08:33:35;96685.59;;;9.35;100.00
6514;BME280;3290;47.716;9.070;2023-03-12T08:36:00;96689.91;;;9.47;100.00
6514;BME280;3290;47.716;9.070;2023-03-12T08:38:26;96694.97;;;9.91;100.00
6514;BME280;3290;47.716;9.070;2023-03-12T08:40:56;96695.31;;;9.21;100.00
6514;BME280;3290;47.716;9.070;2023-03-12T08:43:22;96694.97;;;9.12;100.00
6514;BME280;3290;47.716;9.070;2023-03-12T08:46:01;96691.66;;;8.98;100.00
6514;BME280;3290;47.716;9.070;2023-03-12T08:48:28;96702.09;;;9.05;100.00
6514;BME280;3290;47.716;9.070;2023-03-12T08:50:55;96691.94;;;9.15;100.00
6514;BME280;3290;47.716;9.070;2023-03-12T08:53:21;96691.00;;;9.03;100.00
6514;BME280;3290;47.716;9.070;2023-03-12T08:55:47;96695.44;;;9.02;100.00
6514;BME280;3290;47.716;9.070;2023-03-12T08:58:13;96698.44;;;9.06;100.00
6514;BME280;3290;47.716;9.070;2023-03-12T09:00:38;96698.44;;;9.06;100.00
6514;BME280;3290;47.716;9.070;2023-03-12T09:03:03;96708.97;;;8.93;100.00
6514;BME280;3290;47.716;9.070;2023-03-12T09:05:29;96704.34;;;8.95;100.00
6514;BME280;3290;47.716;9.070;2023-03-12T09:07:56;96696.78;;;9.11;100.00
6514;BME280;3290;47.716;9.070;2023-03-12T09:10:22;96703.97;;;9.22;100.00
6514;BME280;3290;47.716;9.070;2023-03-12T09:12:47;96705.31;;;9.31;100.00
6514;BME280;3290;47.716;9.070;2023-03-12T09:15:13;96702.75;;;9.24;100.00
6514;BME280;3290;47.716;9.070;2023-03-12T09:17:39;96705.09;;;9.32;100.00
6514;BME280;3290;47.716;9.070;2023-03-12T09:20:06;96705.44;;;9.42;100.00
6514;BME280;3290;47.716;9.070;2023-03-12T09:22:39;96707.56;;;9.76;100.00
6514;BME280;3290;47.716;9.070;2023-03-12T09:25:06;96713.84;;;9.75;100.00
6514;BME280;3290;47.716;9.070;2023-03-12T09:27:37;96715.16;;;9.84;100.00
6514;BME280;3290;47.716;9.070;2023-03-12T09:30:04;96724.09;;;10.00;100.00
6514;BME280;3290;47.716;9.070;2023-03-12T09:32:30;96725.88;;;9.76;100.00
6514;BME280;3290;47.716;9.070;2023-03-12T09:34:56;96731.72;;;10.02;100.00
6514;BME280;3290;47.716;9.070;2023-03-12T09:37:21;96731.44;;;9.61;100.00
6514;BME280;3290;47.716;9.070;2023-03-12T09:39:48;96733.84;;;9.63;100.00
6514;BME280;3290;47.716;9.070;2023-03-12T09:42:21;96735.53;;;9.51;100.00
6514;BME280;3290;47.716;9.070;2023-03-12T09:44:49;96732.25;;;9.31;100.00
6514;BME280;3290;47.716;9.070;2023-03-12T09:49:50;96736.94;;;9.78;100.00
6514;BME280;3290;47.716;9.070;2023-03-12T09:52:26;96747.31;;;9.91;100.00
6514;BME280;3290;47.716;9.070;2023-03-12T09:55:02;96743.19;;;9.77;100.00
6514;BME280;3290;47.716;9.070;2023-03-12T09:57:31;96750.91;;;9.96;100.00
6514;BME280;3290;47.716;9.070;2023-03-12T09:59:57;96753.03;;;10.05;100.00
6514;BME280;3290;47.716;9.070;2023-03-12T10:05:43;96745.19;;;10.05;100.00
6514;BME280;3290;47.716;9.070;2023-03-12T10:08:03;96747.53;;;10.13;100.00
6514;BME280;3290;47.716;9.070;2023-03-12T10:10:58;96742.53;;;10.47;100.00
6514;BME280;3290;47.716;9.070;2023-03-12T10:27:16;96736.88;;;10.50;100.00
6514;BME280;3290;47.716;9.070;2023-03-12T10:29:46;96746.69;;;10.90;100.00
6514;BME280;3290;47.716;9.070;2023-03-12T10:32:39;96742.19;;;10.44;100.00
6514;BME280;3290;47.716;9.070;2023-03-12T10:35:21;96745.22;;;10.41;100.00
6514;BME280;3290;47.716;9.070;2023-03-12T10:37:56;96744.22;;;10.24;100.00
6514;BME280;3290;47.716;9.070;2023-03-12T10:40:25;96752.00;;;10.31;100.00
6514;BME280;3290;47.716;9.070;2023-03-12T10:42:51;96755.47;;;10.25;100.00
6514;BME280;3290;47.716;9.070;2023-03-12T10:46:09;96756.72;;;10.22;100.00
6514;BME280;3290;47.716;9.070;2023-03-12T10:48:04;96758.63;;;10.33;100.00
6514;BME280;3290;47.716;9.070;2023-03-12T10:50:34;96755.78;;;10.35;100.00
6514;BME280;3290;47.716;9.070;2023-03-12T10:53:19;96752.00;;;10.31;100.00
6514;BME280;3290;47.716;9.070;2023-03-12T10:56:05;96751.19;;;10.30;100.00
6514;BME280;3290;47.716;9.070;2023-03-12T10:58:37;96758.84;;;10.32;100.00
6514;BME280;3290;47.716;9.070;2023-03-12T11:01:04;96751.72;;;10.38;100.00
6514;BME280;3290;47.716;9.070;2023-03-12T11:03:30;96753.31;;;10.39;100.00
6514;BME280;3290;47.716;9.070;2023-03-12T11:06:00;96763.66;;;10.52;100.00
6514;BME280;3290;47.716;9.070;2023-03-12T11:08:35;96766.78;;;10.61;100.00
6514;BME280;3290;47.716;9.070;2023-03-12T11:11:03;96770.19;;;10.61;100.00
6514;BME280;3290;47.716;9.070;2023-03-12T11:16:02;96782.19;;;10.51;100.00
6514;BME280;3290;47.716;9.070;2023-03-12T11:18:32;96788.41;;;10.32;100.00
6514;BME280;3290;47.716;9.070;2023-03-12T11:23:37;96778.94;;;10.73;100.00
6514;BME280;3290;47.716;9.070;2023-03-12T11:26:11;96781.19;;;10.70;100.00
6514;BME280;3290;47.716;9.070;2023-03-12T11:28:42;96790.34;;;10.43;100.00
6514;BME280;3290;47.716;9.070;2023-03-12T11:31:14;96794.94;;;10.47;100.00
6514;BME280;3290;47.716;9.070;2023-03-12T11:33:43;96796.03;;;10.58;100.00
6514;BME280;3290;47.716;9.070;2023-03-12T11:36:44;96793.22;;;10.77;100.00
6514;BME280;3290;47.716;9.070;2023-03-12T12:05:21;96785.38;;;11.24;100.00
6514;BME280;3290;47.716;9.070;2023-03-12T12:11:13;96785.09;;;11.14;100.00
6514;BME280;3290;47.716;9.070;2023-03-12T12:13:47;96765.75;;;11.26;100.00
6514;BME280;3290;47.716;9.070;2023-03-12T12:18:49;96765.03;;;11.66;100.00
6514;BME280;3290;47.716;9.070;2023-03-12T12:27:06;96761.19;;;11.80;100.00
6514;BME280;3290;47.716;9.070;2023-03-12T12:32:49;96754.03;;;12.55;100.00
6514;BME280;3290;47.716;9.070;2023-03-12T12:35:38;96743.72;;;13.71;95.21
6514;BME280;3290;47.716;9.070;2023-03-12T12:40:59;96740.19;;;15.06;84.86
6514;BME280;3290;47.716;9.070;2023-03-12T12:43:31;96733.19;;;14.95;81.11
6514;BME280;3290;47.716;9.070;2023-03-12T12:46:02;96739.97;;;15.28;80.94
6514;BME280;3290;47.716;9.070;2023-03-12T12:48:35;96736.31;;;14.71;80.66
6514;BME280;3290;47.716;9.070;2023-03-12T12:51:03;96732.84;;;13.84;84.65
6514;BME280;3290;47.716;9.070;2023-03-12T12:59:54;96732.22;;;13.05;89.37
6514;BME280;3290;47.716;9.070;2023-03-12T13:01:50;96730.41;;;12.94;88.05
6514;BME280;3290;47.716;9.070;2023-03-12T13:09:40;96738.13;;;12.50;88.70
6514;BME280;3290;47.716;9.070;2023-03-12T13:14:39;96740.44;;;12.58;87.89
6514;BME280;3290;47.716;9.070;2023-03-12T13:22:40;96750.03;;;12.41;87.85
6514;BME280;3290;47.716;9.070;2023-03-12T13:30:55;96733.63;;;12.96;85.28
6514;BME280;3290;47.716;9.070;2023-03-12T13:33:41;96727.81;;;13.82;81.10
6514;BME280;3290;47.716;9.070;2023-03-12T13:41:39;96736.47;;;12.95;82.29
6514;BME280;3290;47.716;9.070;2023-03-12T13:52:20;96755.84;;;12.55;83.74
6514;BME280;3290;47.716;9.070;2023-03-12T13:54:56;96760.53;;;12.41;85.82
6514;BME280;3290;47.716;9.070;2023-03-12T13:57:32;96757.34;;;12.62;83.91
6514;BME280;3290;47.716;9.070;2023-03-12T13:59:59;96761.88;;;12.78;83.24
6514;BME280;3290;47.716;9.070;2023-03-12T14:02:33;96767.50;;;12.81;80.60
6514;BME280;3290;47.716;9.070;2023-03-12T14:05:09;96760.25;;;13.00;80.18
6514;BME280;3290;47.716;9.070;2023-03-12T14:12:48;96767.28;;;13.22;77.18
6514;BME280;3290;47.716;9.070;2023-03-12T14:18:12;96759.09;;;13.62;75.00
6514;BME280;3290;47.716;9.070;2023-03-12T14:20:39;96758.91;;;14.29;69.05
6514;BME280;3290;47.716;9.070;2023-03-12T14:23:08;96754.28;;;14.36;68.65
6514;BME280;3290;47.716;9.070;2023-03-12T14:25:45;96751.44;;;14.59;66.46
6514;BME280;3290;47.716;9.070;2023-03-12T14:28:20;96747.84;;;14.65;67.30
6514;BME280;3290;47.716;9.070;2023-03-12T14:31:04;96740.88;;;14.05;69.14
6514;BME280;3290;47.716;9.070;2023-03-12T14:33:55;96737.59;;;13.54;72.52
6514;BME280;3290;47.716;9.070;2023-03-12T14:36:57;96733.59;;;14.12;70.92
6514;BME280;3290;47.716;9.070;2023-03-12T14:39:51;96723.06;;;14.66;68.87
6514;BME280;3290;47.716;9.070;2023-03-12T14:45:19;96707.84;;;15.15;65.24
6514;BME280;3290;47.716;9.070;2023-03-12T14:47:52;96712.19;;;15.05;66.69
6514;BME280;3290;47.716;9.070;2023-03-12T14:50:39;96710.31;;;15.00;66.91
6514;BME280;3290;47.716;9.070;2023-03-12T14:53:29;96702.59;;;15.15;66.53
6514;BME280;3290;47.716;9.070;2023-03-12T14:56:13;96693.69;;;15.00;64.47
6514;BME280;3290;47.716;9.070;2023-03-12T14:58:47;96703.63;;;14.93;64.35
6514;BME280;3290;47.716;9.070;2023-03-12T15:01:17;96705.41;;;15.30;63.22
6514;BME280;3290;47.716;9.070;2023-03-12T15:03:47;96707.78;;;15.31;61.86
6514;BME280;3290;47.716;9.070;2023-03-12T15:06:18;96700.91;;;15.57;62.19
6514;BME280;3290;47.716;9.070;2023-03-12T15:08:44;96715.28;;;14.54;63.91
6514;BME280;3290;47.716;9.070;2023-03-12T15:11:10;96716.38;;;14.04;64.94
6514;BME280;3290;47.716;9.070;2023-03-12T15:13:37;96711.16;;;13.93;66.03
6514;BME280;3290;47.716;9.070;2023-03-12T15:16:04;96716.41;;;13.77;65.56
6514;BME280;3290;47.716;9.070;2023-03-12T15:18:31;96723.09;;;14.49;63.85
6514;BME280;3290;47.716;9.070;2023-03-12T15:20:59;96724.78;;;14.77;62.75
6514;BME280;3290;47.716;9.070;2023-03-12T15:23:28;96714.41;;;15.13;61.65
6514;BME280;3290;47.716;9.070;2023-03-12T15:26:08;96719.78;;;14.96;61.58
6514;BME280;3290;47.716;9.070;2023-03-12T15:28:34;96732.34;;;14.52;62.29
6514;BME280;3290;47.716;9.070;2023-03-12T15:33:30;96729.75;;;14.73;62.73
6514;BME280;3290;47.716;9.070;2023-03-12T15:36:05;96720.19;;;14.67;63.28